sensor_id;sensor_type;location;lat;lon;timestamp;temperature;humidity
51567;DHT22;37657;53.182;5.638;2023-02-12T00:01:37;3.90;99.90
51567;DHT22;37657;53.182;5.638;2023-02-12T00:04:03;3.70;99.90
51567;DHT22;37657;53.182;5.638;2023-02-12T00:06:29;3.90;99.90
51567;DHT22;37657;53.182;5.638;2023-02-12T00:08:55;4.10;99.90
51567;DHT22;37657;53.182;5.638;2023-02-12T00:11:25;3.80;99.90
51567;DHT22;37657;53.182;5.638;2023-02-12T00:13:51;4.00;99.90
51567;DHT22;37657;53.182;5.638;2023-02-12T00:16:20;3.80;99.90
51567;DHT22;37657;53.182;5.638;2023-02-12T00:18:46;4.00;99.90
51567;DHT22;37657;53.182;5.638;2023-02-12T00:21:11;4.10;99.90
51567;DHT22;37657;53.182;5.638;2023-02-12T00:23:39;3.90;99.90
51567;DHT22;37657;53.182;5.638;2023-02-12T00:26:11;3.80;99.90
51567;DHT22;37657;53.182;5.638;2023-02-12T00:28:37;3.80;99.90
51567;DHT22;37657;53.182;5.638;2023-02-12T00:31:14;3.80;99.90
51567;DHT22;37657;53.182;5.638;2023-02-12T00:33:40;3.70;99.90
51567;DHT22;37657;53.182;5.638;2023-02-12T00:36:07;3.70;99.90
51567;DHT22;37657;53.182;5.638;2023-02-12T00:38:33;3.80;99.90
51567;DHT22;37657;53.182;5.638;2023-02-12T00:40:59;3.60;99.90
51567;DHT22;37657;53.182;5.638;2023-02-12T00:43:25;3.50;99.90
51567;DHT22;37657;53.182;5.638;2023-02-12T00:45:50;3.50;99.90
51567;DHT22;37657;53.182;5.638;2023-02-12T00:48:16;3.60;99.90
51567;DHT22;37657;53.182;5.638;2023-02-12T00:50:46;3.40;99.90
51567;DHT22;37657;53.182;5.638;2023-02-12T00:53:13;3.30;99.90
51567;DHT22;37657;53.182;5.638;2023-02-12T00:55:39;3.60;99.90
51567;DHT22;37657;53.182;5.638;2023-02-12T00:58:04;3.40;99.90
51567;DHT22;37657;53.182;5.638;2023-02-12T01:00:30;3.50;99.90
51567;DHT22;37657;53.182;5.638;2023-02-12T01:02:56;3.40;99.90
51567;DHT22;37657;53.182;5.638;2023-02-12T01:05:22;3.50;99.90
51567;DHT22;37657;53.182;5.638;2023-02-12T01:07:52;3.80;99.90
51567;DHT22;37657;53.182;5.638;2023-02-12T01:10:19;3.60;99.90
51567;DHT22;37657;53.182;5.638;2023-02-12T01:12:46;3.40;99.90
51567;DHT22;37657;53.182;5.638;2023-02-12T01:15:12;3.40;99.90
51567;DHT22;37657;53.182;5.638;2023-02-12T01:17:37;3.40;99.90
51567;DHT22;37657;53.182;5.638;2023-02-12T01:20:05;3.30;99.90
51567;DHT22;37657;53.182;5.638;2023-02-12T01:22:33;3.30;99.90
51567;DHT22;37657;53.182;5.638;2023-02-12T01:24:59;3.50;99.90
51567;DHT22;37657;53.182;5.638;2023-02-12T01:27:25;3.20;99.90
51567;DHT22;37657;53.182;5.638;2023-02-12T01:29:50;3.50;99.90
51567;DHT22;37657;53.182;5.638;2023-02-12T01:32:16;3.20;99.90
51567;DHT22;37657;53.182;5.638;2023-02-12T01:34:41;3.30;99.90
51567;DHT22;37657;53.182;5.638;2023-02-12T01:37:07;3.30;99.90
51567;DHT22;37657;53.182;5.638;2023-02-12T01:39:33;3.50;99.90
51567;DHT22;37657;53.182;5.638;2023-02-12T01:42:00;3.30;99.90
51567;DHT22;37657;53.182;5.638;2023-02-12T01:44:31;3.40;99.90
51567;DHT22;37657;53.182;5.638;2023-02-12T01:47:02;3.50;99.90
51567;DHT22;37657;53.182;5.638;2023-02-12T01:49:43;3.70;99.90
51567;DHT22;37657;53.182;5.638;2023-02-12T01:52:22;3.50;99.90
51567;DHT22;37657;53.182;5.638;2023-02-12T01:54:50;3.60;99.90
51567;DHT22;37657;53.182;5.638;2023-02-12T01:57:18;3.70;99.90
51567;DHT22;37657;53.182;5.638;2023-02-12T01:59:44;3.60;99.90
51567;DHT22;37657;53.182;5.638;2023-02-12T02:02:11;3.60;99.90
51567;DHT22;37657;53.182;5.638;2023-02-12T02:04:44;3.70;99.90
51567;DHT22;37657;53.182;5.638;2023-02-12T02:07:11;4.00;99.90
51567;DHT22;37657;53.182;5.638;2023-02-12T02:09:38;3.90;99.90
51567;DHT22;37657;53.182;5.638;2023-02-12T02:12:04;4.20;99.90
51567;DHT22;37657;53.182;5.638;2023-02-12T02:14:50;4.00;99.90
51567;DHT22;37657;53.182;5.638;2023-02-12T02:28:52;4.20;99.90
51567;DHT22;37657;53.182;5.638;2023-02-12T02:31:41;4.20;99.90
51567;DHT22;37657;53.182;5.638;2023-02-12T02:34:24;3.90;99.90
51567;DHT22;37657;53.182;5.638;2023-02-12T02:39:40;4.10;99.90
51567;DHT22;37657;53.182;5.638;2023-02-12T02:42:34;4.00;99.90
51567;DHT22;37657;53.182;5.638;2023-02-12T02:45:12;3.70;99.90
51567;DHT22;37657;53.182;5.638;2023-02-12T02:47:47;3.90;99.90
51567;DHT22;37657;53.182;5.638;2023-02-12T02:50:16;3.70;99.90
51567;DHT22;37657;53.182;5.638;2023-02-12T02:53:02;3.90;99.90
51567;DHT22;37657;53.182;5.638;2023-02-12T02:55:37;3.80;99.90
51567;DHT22;37657;53.182;5.638;2023-02-12T02:58:22;3.60;99.90
51567;DHT22;37657;53.182;5.638;2023-02-12T03:06:14;3.50;99.90
51567;DHT22;37657;53.182;5.638;2023-02-12T03:08:49;3.80;99.90
51567;DHT22;37657;53.182;5.638;2023-02-12T03:11:30;3.70;99.90
51567;DHT22;37657;53.182;5.638;2023-02-12T03:14:07;3.70;99.90
51567;DHT22;37657;53.182;5.638;2023-02-12T03:16:44;3.60;99.90
51567;DHT22;37657;53.182;5.638;2023-02-12T03:19:21;3.60;99.90
51567;DHT22;37657;53.182;5.638;2023-02-12T03:21:57;3.50;99.90
51567;DHT22;37657;53.182;5.638;2023-02-12T03:24:35;3.70;99.90
51567;DHT22;37657;53.182;5.638;2023-02-12T03:27:47;3.70;99.90
51567;DHT22;37657;53.182;5.638;2023-02-12T03:30:05;3.80;99.90
51567;DHT22;37657;53.182;5.638;2023-02-12T03:33:05;3.40;99.90
51567;DHT22;37657;53.182;5.638;2023-02-12T03:35:41;3.70;99.90
51567;DHT22;37657;53.182;5.638;2023-02-12T03:38:48;3.40;99.90
51567;DHT22;37657;53.182;5.638;2023-02-12T03:41:21;3.20;99.90
51567;DHT22;37657;53.182;5.638;2023-02-12T03:43:58;3.30;99.90
51567;DHT22;37657;53.182;5.638;2023-02-12T03:49:23;3.40;99.90
51567;DHT22;37657;53.182;5.638;2023-02-12T03:51:51;3.20;99.90
51567;DHT22;37657;53.182;5.638;2023-02-12T03:54:19;3.50;99.90
51567;DHT22;37657;53.182;5.638;2023-02-12T03:56:49;3.50;99.90
51567;DHT22;37657;53.182;5.638;2023-02-12T03:59:18;3.50;99.90
51567;DHT22;37657;53.182;5.638;2023-02-12T04:01:44;3.40;99.90
51567;DHT22;37657;53.182;5.638;2023-02-12T04:04:10;3.30;99.90
51567;DHT22;37657;53.182;5.638;2023-02-12T04:06:36;3.10;99.90
51567;DHT22;37657;53.182;5.638;2023-02-12T04:09:04;3.10;99.90
51567;DHT22;37657;53.182;5.638;2023-02-12T04:11:57;3.30;99.90
51567;DHT22;37657;53.182;5.638;2023-02-12T04:17:25;3.10;99.90
51567;DHT22;37657;53.182;5.638;2023-02-12T04:20:20;3.20;99.90
51567;DHT22;37657;53.182;5.638;2023-02-12T04:31:35;3.40;99.90
51567;DHT22;37657;53.182;5.638;2023-02-12T04:34:13;3.70;99.90
51567;DHT22;37657;53.182;5.638;2023-02-12T04:37:03;3.70;99.90
51567;DHT22;37657;53.182;5.638;2023-02-12T04:39:33;3.30;99.90
51567;DHT22;37657;53.182;5.638;2023-02-12T04:42:01;3.60;99.90
51567;DHT22;37657;53.182;5.638;2023-02-12T04:44:29;3.80;99.90
51567;DHT22;37657;53.182;5.638;2023-02-12T04:46:55;3.60;99.90
51567;DHT22;37657;53.182;5.638;2023-02-12T04:49:22;3.90;99.90
51567;DHT22;37657;53.182;5.638;2023-02-12T04:51:48;4.10;99.90
51567;DHT22;37657;53.182;5.638;2023-02-12T04:54:15;4.20;99.90
51567;DHT22;37657;53.182;5.638;2023-02-12T04:56:41;3.90;99.90
51567;DHT22;37657;53.182;5.638;2023-02-12T04:59:07;3.90;99.90
51567;DHT22;37657;53.182;5.638;2023-02-12T05:01:34;4.20;99.90
51567;DHT22;37657;53.182;5.638;2023-02-12T05:04:00;4.00;99.90
51567;DHT22;37657;53.182;5.638;2023-02-12T05:06:26;4.30;99.90
51567;DHT22;37657;53.182;5.638;2023-02-12T05:08:52;4.00;99.90
51567;DHT22;37657;53.182;5.638;2023-02-12T05:11:18;4.40;99.90
51567;DHT22;37657;53.182;5.638;2023-02-12T05:13:47;4.30;99.90
51567;DHT22;37657;53.182;5.638;2023-02-12T05:16:13;4.20;99.90
51567;DHT22;37657;53.182;5.638;2023-02-12T05:18:39;4.00;99.90
51567;DHT22;37657;53.182;5.638;2023-02-12T05:21:04;4.10;99.90
51567;DHT22;37657;53.182;5.638;2023-02-12T05:23:33;4.50;99.90
51567;DHT22;37657;53.182;5.638;2023-02-12T05:26:03;4.40;99.90
51567;DHT22;37657;53.182;5.638;2023-02-12T05:28:30;4.10;99.90
51567;DHT22;37657;53.182;5.638;2023-02-12T05:30:59;4.70;99.90
51567;DHT22;37657;53.182;5.638;2023-02-12T05:33:26;4.30;99.90
51567;DHT22;37657;53.182;5.638;2023-02-12T05:35:52;4.40;99.90
51567;DHT22;37657;53.182;5.638;2023-02-12T05:38:17;4.80;99.90
51567;DHT22;37657;53.182;5.638;2023-02-12T05:40:43;4.60;99.90
51567;DHT22;37657;53.182;5.638;2023-02-12T05:43:09;4.90;99.90
51567;DHT22;37657;53.182;5.638;2023-02-12T05:45:34;4.50;99.90
51567;DHT22;37657;53.182;5.638;2023-02-12T05:48:00;5.00;99.90
51567;DHT22;37657;53.182;5.638;2023-02-12T05:50:27;4.90;99.90
51567;DHT22;37657;53.182;5.638;2023-02-12T05:52:52;4.50;99.90
51567;DHT22;37657;53.182;5.638;2023-02-12T05:55:18;4.60;99.90
51567;DHT22;37657;53.182;5.638;2023-02-12T05:57:43;5.00;99.90
51567;DHT22;37657;53.182;5.638;2023-02-12T06:00:11;5.10;99.90
51567;DHT22;37657;53.182;5.638;2023-02-12T06:02:37;5.20;99.90
51567;DHT22;37657;53.182;5.638;2023-02-12T06:05:03;5.20;99.90
51567;DHT22;37657;53.182;5.638;2023-02-12T06:07:28;4.90;99.90
51567;DHT22;37657;53.182;5.638;2023-02-12T06:09:54;5.40;99.90
51567;DHT22;37657;53.182;5.638;2023-02-12T06:12:20;5.40;99.90
51567;DHT22;37657;53.182;5.638;2023-02-12T06:14:46;5.00;99.90
51567;DHT22;37657;53.182;5.638;2023-02-12T06:17:11;5.30;99.90
51567;DHT22;37657;53.182;5.638;2023-02-12T06:19:37;5.60;99.90
51567;DHT22;37657;53.182;5.638;2023-02-12T06:22:03;5.10;99.90
51567;DHT22;37657;53.182;5.638;2023-02-12T06:24:28;5.30;99.90
51567;DHT22;37657;53.182;5.638;2023-02-12T06:26:54;5.70;99.90
51567;DHT22;37657;53.182;5.638;2023-02-12T06:29:20;5.40;99.90
51567;DHT22;37657;53.182;5.638;2023-02-12T06:31:46;5.50;99.90
51567;DHT22;37657;53.182;5.638;2023-02-12T06:34:13;6.10;99.90
51567;DHT22;37657;53.182;5.638;2023-02-12T06:36:42;5.70;99.90
51567;DHT22;37657;53.182;5.638;2023-02-12T06:39:09;6.00;99.90
51567;DHT22;37657;53.182;5.638;2023-02-12T06:41:35;5.90;99.90
51567;DHT22;37657;53.182;5.638;2023-02-12T06:44:01;5.80;99.90
51567;DHT22;37657;53.182;5.638;2023-02-12T06:46:27;6.40;99.90
51567;DHT22;37657;53.182;5.638;2023-02-12T06:48:57;6.20;99.90
51567;DHT22;37657;53.182;5.638;2023-02-12T06:51:23;6.40;99.90
51567;DHT22;37657;53.182;5.638;2023-02-12T06:53:50;6.50;99.90
51567;DHT22;37657;53.182;5.638;2023-02-12T06:56:17;6.50;99.90
51567;DHT22;37657;53.182;5.638;2023-02-12T06:58:44;6.20;99.90
51567;DHT22;37657;53.182;5.638;2023-02-12T07:01:11;6.30;99.90
51567;DHT22;37657;53.182;5.638;2023-02-12T07:03:41;6.30;99.90
51567;DHT22;37657;53.182;5.638;2023-02-12T07:06:07;6.50;99.90
51567;DHT22;37657;53.182;5.638;2023-02-12T07:08:33;6.80;99.90
51567;DHT22;37657;53.182;5.638;2023-02-12T07:10:58;6.70;99.90
51567;DHT22;37657;53.182;5.638;2023-02-12T07:13:24;6.70;99.90
51567;DHT22;37657;53.182;5.638;2023-02-12T07:15:49;6.80;99.90
51567;DHT22;37657;53.182;5.638;2023-02-12T07:18:15;6.50;99.90
51567;DHT22;37657;53.182;5.638;2023-02-12T07:20:40;6.50;99.90
51567;DHT22;37657;53.182;5.638;2023-02-12T07:23:06;6.50;99.90
51567;DHT22;37657;53.182;5.638;2023-02-12T07:25:34;6.40;99.90
51567;DHT22;37657;53.182;5.638;2023-02-12T07:28:00;6.90;99.90
51567;DHT22;37657;53.182;5.638;2023-02-12T07:30:25;6.70;99.90
51567;DHT22;37657;53.182;5.638;2023-02-12T07:32:51;6.80;99.90
51567;DHT22;37657;53.182;5.638;2023-02-12T07:35:16;7.00;99.90
51567;DHT22;37657;53.182;5.638;2023-02-12T07:37:42;7.00;99.90
51567;DHT22;37657;53.182;5.638;2023-02-12T07:40:08;7.00;99.90
51567;DHT22;37657;53.182;5.638;2023-02-12T07:42:34;6.80;99.90
51567;DHT22;37657;53.182;5.638;2023-02-12T07:44:59;7.10;99.90
51567;DHT22;37657;53.182;5.638;2023-02-12T07:47:25;7.20;99.90
51567;DHT22;37657;53.182;5.638;2023-02-12T07:49:50;6.80;99.90
51567;DHT22;37657;53.182;5.638;2023-02-12T07:52:16;6.80;99.90
51567;DHT22;37657;53.182;5.638;2023-02-12T07:54:41;7.10;99.90
51567;DHT22;37657;53.182;5.638;2023-02-12T07:57:07;7.30;99.90
51567;DHT22;37657;53.182;5.638;2023-02-12T07:59:32;7.10;99.90
51567;DHT22;37657;53.182;5.638;2023-02-12T08:01:58;7.10;99.90
51567;DHT22;37657;53.182;5.638;2023-02-12T08:04:25;7.40;99.90
51567;DHT22;37657;53.182;5.638;2023-02-12T08:06:53;7.10;99.90
51567;DHT22;37657;53.182;5.638;2023-02-12T08:09:22;7.50;99.90
51567;DHT22;37657;53.182;5.638;2023-02-12T08:11:48;7.10;99.90
51567;DHT22;37657;53.182;5.638;2023-02-12T08:14:17;7.10;99.90
51567;DHT22;37657;53.182;5.638;2023-02-12T08:16:44;7.30;99.90
51567;DHT22;37657;53.182;5.638;2023-02-12T08:19:10;7.50;99.90
51567;DHT22;37657;53.182;5.638;2023-02-12T08:21:36;7.30;99.90
51567;DHT22;37657;53.182;5.638;2023-02-12T08:24:02;7.60;99.90
51567;DHT22;37657;53.182;5.638;2023-02-12T08:26:33;7.20;99.90
51567;DHT22;37657;53.182;5.638;2023-02-12T08:29:07;7.50;99.90
51567;DHT22;37657;53.182;5.638;2023-02-12T08:31:43;7.30;99.90
51567;DHT22;37657;53.182;5.638;2023-02-12T08:34:24;7.70;99.90
51567;DHT22;37657;53.182;5.638;2023-02-12T08:36:51;7.70;99.90
51567;DHT22;37657;53.182;5.638;2023-02-12T08:39:21;7.50;99.90
51567;DHT22;37657;53.182;5.638;2023-02-12T08:41:47;7.50;99.90
51567;DHT22;37657;53.182;5.638;2023-02-12T08:44:13;7.70;99.90
51567;DHT22;37657;53.182;5.638;2023-02-12T08:46:43;8.10;99.90
51567;DHT22;37657;53.182;5.638;2023-02-12T08:49:13;7.70;99.90
51567;DHT22;37657;53.182;5.638;2023-02-12T08:51:42;7.80;99.90
51567;DHT22;37657;53.182;5.638;2023-02-12T08:54:12;7.90;99.90
51567;DHT22;37657;53.182;5.638;2023-02-12T08:56:38;8.00;99.90
51567;DHT22;37657;53.182;5.638;2023-02-12T08:59:05;8.40;99.90
51567;DHT22;37657;53.182;5.638;2023-02-12T09:01:33;7.90;99.90
51567;DHT22;37657;53.182;5.638;2023-02-12T09:04:00;8.00;99.90
51567;DHT22;37657;53.182;5.638;2023-02-12T09:06:26;8.20;99.90
51567;DHT22;37657;53.182;5.638;2023-02-12T09:08:53;8.50;99.90
51567;DHT22;37657;53.182;5.638;2023-02-12T09:11:22;8.50;99.90
51567;DHT22;37657;53.182;5.638;2023-02-12T09:13:52;8.60;99.90
51567;DHT22;37657;53.182;5.638;2023-02-12T09:16:17;8.40;99.90
51567;DHT22;37657;53.182;5.638;2023-02-12T09:18:43;8.50;99.90
51567;DHT22;37657;53.182;5.638;2023-02-12T09:21:14;8.40;99.90
51567;DHT22;37657;53.182;5.638;2023-02-12T09:23:42;8.40;99.90
51567;DHT22;37657;53.182;5.638;2023-02-12T09:26:09;8.70;99.90
51567;DHT22;37657;53.182;5.638;2023-02-12T09:28:36;8.70;99.90
51567;DHT22;37657;53.182;5.638;2023-02-12T09:31:10;8.50;99.90
51567;DHT22;37657;53.182;5.638;2023-02-12T09:33:36;8.80;99.90
51567;DHT22;37657;53.182;5.638;2023-02-12T09:36:07;8.50;99.90
51567;DHT22;37657;53.182;5.638;2023-02-12T09:38:33;8.90;99.90
51567;DHT22;37657;53.182;5.638;2023-02-12T09:44:06;8.80;99.90
51567;DHT22;37657;53.182;5.638;2023-02-12T09:51:48;9.10;99.90
51567;DHT22;37657;53.182;5.638;2023-02-12T09:54:18;9.00;99.90
51567;DHT22;37657;53.182;5.638;2023-02-12T09:56:55;9.00;99.90
51567;DHT22;37657;53.182;5.638;2023-02-12T09:59:38;9.10;99.90
51567;DHT22;37657;53.182;5.638;2023-02-12T10:02:19;8.90;99.90
51567;DHT22;37657;53.182;5.638;2023-02-12T10:04:47;9.20;99.90
51567;DHT22;37657;53.182;5.638;2023-02-12T10:10:23;9.20;99.90
51567;DHT22;37657;53.182;5.638;2023-02-12T10:13:35;9.00;99.90
51567;DHT22;37657;53.182;5.638;2023-02-12T10:23:50;9.20;99.90
51567;DHT22;37657;53.182;5.638;2023-02-12T10:26:39;9.20;99.90
51567;DHT22;37657;53.182;5.638;2023-02-12T10:29:27;9.20;99.90
51567;DHT22;37657;53.182;5.638;2023-02-12T10:32:06;9.20;99.90
51567;DHT22;37657;53.182;5.638;2023-02-12T10:34:36;9.20;99.90
51567;DHT22;37657;53.182;5.638;2023-02-12T10:37:08;9.10;99.90
51567;DHT22;37657;53.182;5.638;2023-02-12T10:39:41;9.10;99.90
51567;DHT22;37657;53.182;5.638;2023-02-12T10:42:34;9.30;99.90
51567;DHT22;37657;53.182;5.638;2023-02-12T10:45:01;9.10;99.90
51567;DHT22;37657;53.182;5.638;2023-02-12T10:47:27;9.20;99.90
51567;DHT22;37657;53.182;5.638;2023-02-12T10:49:59;9.40;99.90
51567;DHT22;37657;53.182;5.638;2023-02-12T10:52:47;9.40;99.90
51567;DHT22;37657;53.182;5.638;2023-02-12T10:55:28;9.30;99.90
51567;DHT22;37657;53.182;5.638;2023-02-12T10:57:54;9.20;99.90
51567;DHT22;37657;53.182;5.638;2023-02-12T11:00:28;9.20;99.90
51567;DHT22;37657;53.182;5.638;2023-02-12T11:03:18;9.20;99.90
51567;DHT22;37657;53.182;5.638;2023-02-12T11:05:45;9.40;99.90
51567;DHT22;37657;53.182;5.638;2023-02-12T11:08:33;9.20;99.90
51567;DHT22;37657;53.182;5.638;2023-02-12T11:11:23;9.40;99.90
51567;DHT22;37657;53.182;5.638;2023-02-12T11:13:57;9.30;99.90
51567;DHT22;37657;53.182;5.638;2023-02-12T11:16:39;9.40;99.90
51567;DHT22;37657;53.182;5.638;2023-02-12T11:19:24;9.30;99.90
51567;DHT22;37657;53.182;5.638;2023-02-12T11:21:51;9.50;99.90
51567;DHT22;37657;53.182;5.638;2023-02-12T11:24:31;9.50;99.90
51567;DHT22;37657;53.182;5.638;2023-02-12T11:27:22;9.30;99.90
51567;DHT22;37657;53.182;5.638;2023-02-12T11:32:35;9.50;99.90
51567;DHT22;37657;53.182;5.638;2023-02-12T11:35:16;9.30;99.90
51567;DHT22;37657;53.182;5.638;2023-02-12T11:37:49;9.50;99.90
51567;DHT22;37657;53.182;5.638;2023-02-12T11:40:27;9.40;99.90
51567;DHT22;37657;53.182;5.638;2023-02-12T11:43:05;9.50;99.90
51567;DHT22;37657;53.182;5.638;2023-02-12T11:45:43;9.50;99.90
51567;DHT22;37657;53.182;5.638;2023-02-12T11:48:19;9.50;99.90
51567;DHT22;37657;53.182;5.638;2023-02-12T11:50:48;9.40;99.90
51567;DHT22;37657;53.182;5.638;2023-02-12T11:53:42;9.60;99.90
51567;DHT22;37657;53.182;5.638;2023-02-12T11:56:12;9.60;99.90
51567;DHT22;37657;53.182;5.638;2023-02-12T11:58:39;9.60;99.90
51567;DHT22;37657;53.182;5.638;2023-02-12T12:03:46;9.60;99.90
51567;DHT22;37657;53.182;5.638;2023-02-12T12:08:53;9.60;99.90
51567;DHT22;37657;53.182;5.638;2023-02-12T12:11:39;9.70;99.90
51567;DHT22;37657;53.182;5.638;2023-02-12T12:17:04;9.70;99.90
51567;DHT22;37657;53.182;5.638;2023-02-12T12:19:58;9.60;99.90
51567;DHT22;37657;53.182;5.638;2023-02-12T12:22:45;9.70;99.90
51567;DHT22;37657;53.182;5.638;2023-02-12T12:25:21;9.70;99.90
51567;DHT22;37657;53.182;5.638;2023-02-12T12:27:55;9.80;99.90
51567;DHT22;37657;53.182;5.638;2023-02-12T12:33:05;9.70;99.90
51567;DHT22;37657;53.182;5.638;2023-02-12T12:35:58;9.70;99.90
51567;DHT22;37657;53.182;5.638;2023-02-12T12:39:30;9.70;99.90
51567;DHT22;37657;53.182;5.638;2023-02-12T12:44:18;9.80;99.90
51567;DHT22;37657;53.182;5.638;2023-02-12T12:49:16;9.80;99.90
51567;DHT22;37657;53.182;5.638;2023-02-12T12:57:33;9.70;99.90
51567;DHT22;37657;53.182;5.638;2023-02-12T13:08:39;9.80;99.90
51567;DHT22;37657;53.182;5.638;2023-02-12T13:13:52;9.80;99.90
51567;DHT22;37657;53.182;5.638;2023-02-12T13:16:42;9.90;99.90
51567;DHT22;37657;53.182;5.638;2023-02-12T13:19:22;9.90;99.90
51567;DHT22;37657;53.182;5.638;2023-02-12T13:22:18;9.90;99.90
51567;DHT22;37657;53.182;5.638;2023-02-12T13:27:48;9.80;99.90
51567;DHT22;37657;53.182;5.638;2023-02-12T13:30:22;9.80;99.90
51567;DHT22;37657;53.182;5.638;2023-02-12T13:33:03;9.90;99.90
51567;DHT22;37657;53.182;5.638;2023-02-12T13:35:31;9.80;99.90
51567;DHT22;37657;53.182;5.638;2023-02-12T13:37:59;9.80;99.90
51567;DHT22;37657;53.182;5.638;2023-02-12T13:40:29;9.80;99.90
51567;DHT22;37657;53.182;5.638;2023-02-12T13:51:52;9.70;99.90
51567;DHT22;37657;53.182;5.638;2023-02-12T13:57:00;9.80;99.90
51567;DHT22;37657;53.182;5.638;2023-02-12T14:02:00;9.80;99.90
51567;DHT22;37657;53.182;5.638;2023-02-12T14:04:42;9.70;99.90
51567;DHT22;37657;53.182;5.638;2023-02-12T14:07:12;9.70;99.90
51567;DHT22;37657;53.182;5.638;2023-02-12T14:09:43;9.70;99.90
51567;DHT22;37657;53.182;5.638;2023-02-12T14:12:14;9.70;99.90
51567;DHT22;37657;53.182;5.638;2023-02-12T14:14:44;9.70;99.90
51567;DHT22;37657;53.182;5.638;2023-02-12T14:28:05;9.60;99.90
51567;DHT22;37657;53.182;5.638;2023-02-12T14:30:34;9.60;99.90
51567;DHT22;37657;53.182;5.638;2023-02-12T14:35:40;9.50;99.90
51567;DHT22;37657;53.182;5.638;2023-02-12T14:40:45;9.50;99.90
51567;DHT22;37657;53.182;5.638;2023-02-12T14:43:33;9.40;99.90
51567;DHT22;37657;53.182;5.638;2023-02-12T14:51:36;9.30;99.90
51567;DHT22;37657;53.182;5.638;2023-02-12T14:54:13;9.40;99.90
51567;DHT22;37657;53.182;5.638;2023-02-12T14:56:46;9.30;99.90
51567;DHT22;37657;53.182;5.638;2023-02-12T14:59:19;9.30;99.90
51567;DHT22;37657;53.182;5.638;2023-02-12T15:01:46;9.30;99.90
51567;DHT22;37657;53.182;5.638;2023-02-12T15:04:24;9.30;99.90
51567;DHT22;37657;53.182;5.638;2023-02-12T15:07:02;9.30;99.90
51567;DHT22;37657;53.182;5.638;2023-02-12T15:10:03;9.20;99.90
51567;DHT22;37657;53.182;5.638;2023-02-12T15:12:59;9.40;99.90
51567;DHT22;37657;53.182;5.638;2023-02-12T15:15:38;9.20;99.90
51567;DHT22;37657;53.182;5.638;2023-02-12T15:18:58;9.20;99.90
51567;DHT22;37657;53.182;5.638;2023-02-12T15:21:20;9.10;99.90
51567;DHT22;37657;53.182;5.638;2023-02-12T15:24:00;9.10;99.90
51567;DHT22;37657;53.182;5.638;2023-02-12T15:26:28;9.10;99.90
51567;DHT22;37657;53.182;5.638;2023-02-12T15:28:54;9.00;99.90
51567;DHT22;37657;53.182;5.638;2023-02-12T15:31:25;9.00;99.90
51567;DHT22;37657;53.182;5.638;2023-02-12T15:33:52;9.00;99.90
51567;DHT22;37657;53.182;5.638;2023-02-12T15:36:21;8.90;99.90
51567;DHT22;37657;53.182;5.638;2023-02-12T15:39:05;8.90;99.90
51567;DHT22;37657;53.182;5.638;2023-02-12T15:44:19;8.80;99.90
51567;DHT22;37657;53.182;5.638;2023-02-12T15:49:31;8.70;99.90
51567;DHT22;37657;53.182;5.638;2023-02-12T15:52:00;8.80;99.90
51567;DHT22;37657;53.182;5.638;2023-02-12T15:54:27;8.80;99.90
51567;DHT22;37657;53.182;5.638;2023-02-12T15:56:53;8.70;99.90
51567;DHT22;37657;53.182;5.638;2023-02-12T15:59:22;8.70;99.90
51567;DHT22;37657;53.182;5.638;2023-02-12T16:01:57;8.60;99.90
51567;DHT22;37657;53.182;5.638;2023-02-12T16:04:24;8.50;99.90
51567;DHT22;37657;53.182;5.638;2023-02-12T16:06:50;8.50;99.90
51567;DHT22;37657;53.182;5.638;2023-02-12T16:09:22;8.50;99.90
51567;DHT22;37657;53.182;5.638;2023-02-12T16:11:52;8.50;99.90
51567;DHT22;37657;53.182;5.638;2023-02-12T16:14:25;8.50;99.90
51567;DHT22;37657;53.182;5.638;2023-02-12T16:16:53;8.50;99.90
51567;DHT22;37657;53.182;5.638;2023-02-12T16:19:30;8.40;99.90
51567;DHT22;37657;53.182;5.638;2023-02-12T16:22:07;8.40;99.90
51567;DHT22;37657;53.182;5.638;2023-02-12T16:24:36;8.40;99.90
51567;DHT22;37657;53.182;5.638;2023-02-12T16:27:17;8.30;99.90
51567;DHT22;37657;53.182;5.638;2023-02-12T16:29:49;8.30;99.90
51567;DHT22;37657;53.182;5.638;2023-02-12T16:42:37;8.20;99.90
51567;DHT22;37657;53.182;5.638;2023-02-12T16:45:36;8.10;99.90
51567;DHT22;37657;53.182;5.638;2023-02-12T16:50:49;8.10;99.90
51567;DHT22;37657;53.182;5.638;2023-02-12T16:53:32;8.00;99.90
51567;DHT22;37657;53.182;5.638;2023-02-12T16:55:59;8.00;99.90
51567;DHT22;37657;53.182;5.638;2023-02-12T16:58:25;8.00;99.90
51567;DHT22;37657;53.182;5.638;2023-02-12T17:00:53;7.90;99.90
51567;DHT22;37657;53.182;5.638;2023-02-12T17:03:19;7.90;99.90
51567;DHT22;37657;53.182;5.638;2023-02-12T17:05:44;7.90;99.90
51567;DHT22;37657;53.182;5.638;2023-02-12T17:08:16;7.80;99.90
51567;DHT22;37657;53.182;5.638;2023-02-12T17:10:43;7.80;99.90
51567;DHT22;37657;53.182;5.638;2023-02-12T17:13:13;7.80;99.90
51567;DHT22;37657;53.182;5.638;2023-02-12T17:15:53;7.80;99.90
51567;DHT22;37657;53.182;5.638;2023-02-12T17:18:20;7.70;99.90
51567;DHT22;37657;53.182;5.638;2023-02-12T17:20:52;7.80;99.90
51567;DHT22;37657;53.182;5.638;2023-02-12T17:23:18;7.70;99.90
51567;DHT22;37657;53.182;5.638;2023-02-12T17:25:44;7.70;99.90
51567;DHT22;37657;53.182;5.638;2023-02-12T17:28:09;7.70;99.90
51567;DHT22;37657;53.182;5.638;2023-02-12T17:30:35;7.70;99.90
51567;DHT22;37657;53.182;5.638;2023-02-12T17:33:02;7.70;99.90
51567;DHT22;37657;53.182;5.638;2023-02-12T17:35:27;7.70;99.90
51567;DHT22;37657;53.182;5.638;2023-02-12T17:37:53;7.70;99.90
51567;DHT22;37657;53.182;5.638;2023-02-12T17:40:18;7.70;99.90
51567;DHT22;37657;53.182;5.638;2023-02-12T17:42:44;7.70;99.90
51567;DHT22;37657;53.182;5.638;2023-02-12T17:45:09;7.70;99.90
51567;DHT22;37657;53.182;5.638;2023-02-12T17:47:35;7.60;99.90
51567;DHT22;37657;53.182;5.638;2023-02-12T17:50:13;7.60;99.90
51567;DHT22;37657;53.182;5.638;2023-02-12T17:52:38;7.60;99.90
51567;DHT22;37657;53.182;5.638;2023-02-12T17:55:05;7.60;99.90
51567;DHT22;37657;53.182;5.638;2023-02-12T17:57:31;7.60;99.90
51567;DHT22;37657;53.182;5.638;2023-02-12T17:59:57;7.60;99.90
51567;DHT22;37657;53.182;5.638;2023-02-12T18:02:22;7.60;99.90
51567;DHT22;37657;53.182;5.638;2023-02-12T18:04:48;7.60;99.90
51567;DHT22;37657;53.182;5.638;2023-02-12T18:07:14;7.60;99.90
51567;DHT22;37657;53.182;5.638;2023-02-12T18:09:39;7.60;99.90
51567;DHT22;37657;53.182;5.638;2023-02-12T18:12:05;7.60;99.90
51567;DHT22;37657;53.182;5.638;2023-02-12T18:14:31;7.60;99.90
51567;DHT22;37657;53.182;5.638;2023-02-12T18:16:57;7.50;99.90
51567;DHT22;37657;53.182;5.638;2023-02-12T18:19:25;7.40;99.90
51567;DHT22;37657;53.182;5.638;2023-02-12T18:21:51;7.40;99.90
51567;DHT22;37657;53.182;5.638;2023-02-12T18:24:16;7.40;99.90
51567;DHT22;37657;53.182;5.638;2023-02-12T18:26:42;7.30;99.90
51567;DHT22;37657;53.182;5.638;2023-02-12T18:29:07;7.40;99.90
51567;DHT22;37657;53.182;5.638;2023-02-12T18:31:33;7.30;99.90
51567;DHT22;37657;53.182;5.638;2023-02-12T18:33:59;7.30;99.90
51567;DHT22;37657;53.182;5.638;2023-02-12T18:36:25;7.30;99.90